sensor_id;sensor_type;location;lat;lon;timestamp;P1;durP1;ratioP1;P2;durP2;ratioP2
66327;SDS011;53133;52.862;6.602;2022-12-18T00:00:40;94.77;;;32.37;;
66327;SDS011;53133;52.862;6.602;2022-12-18T00:03:07;99.87;;;34.63;;
66327;SDS011;53133;52.862;6.602;2022-12-18T00:05:32;110.10;;;38.57;;
66327;SDS011;53133;52.862;6.602;2022-12-18T00:07:58;107.20;;;38.40;;
66327;SDS011;53133;52.862;6.602;2022-12-18T00:10:24;114.23;;;40.40;;
66327;SDS011;53133;52.862;6.602;2022-12-18T00:12:49;117.60;;;42.13;;
66327;SDS011;53133;52.862;6.602;2022-12-18T00:15:15;138.20;;;46.40;;
66327;SDS011;53133;52.862;6.602;2022-12-18T00:17:40;157.93;;;52.30;;
66327;SDS011;53133;52.862;6.602;2022-12-18T00:20:06;140.03;;;49.67;;
66327;SDS011;53133;52.862;6.602;2022-12-18T00:22:32;167.83;;;61.37;;
66327;SDS011;53133;52.862;6.602;2022-12-18T00:24:58;144.93;;;52.93;;
66327;SDS011;53133;52.862;6.602;2022-12-18T00:27:24;83.93;;;31.50;;
66327;SDS011;53133;52.862;6.602;2022-12-18T00:29:49;85.57;;;29.97;;
66327;SDS011;53133;52.862;6.602;2022-12-18T00:32:15;80.67;;;30.53;;
66327;SDS011;53133;52.862;6.602;2022-12-18T00:34:40;87.63;;;31.33;;
66327;SDS011;53133;52.862;6.602;2022-12-18T00:37:06;87.80;;;30.63;;
66327;SDS011;53133;52.862;6.602;2022-12-18T00:39:32;82.87;;;29.20;;
66327;SDS011;53133;52.862;6.602;2022-12-18T00:41:57;85.80;;;31.90;;
66327;SDS011;53133;52.862;6.602;2022-12-18T00:44:41;83.80;;;30.53;;
66327;SDS011;53133;52.862;6.602;2022-12-18T00:47:07;89.00;;;33.23;;
66327;SDS011;53133;52.862;6.602;2022-12-18T00:49:32;88.23;;;32.10;;
66327;SDS011;53133;52.862;6.602;2022-12-18T00:51:58;92.43;;;32.63;;
66327;SDS011;53133;52.862;6.602;2022-12-18T00:54:24;83.67;;;31.03;;
66327;SDS011;53133;52.862;6.602;2022-12-18T00:56:49;84.13;;;30.80;;
66327;SDS011;53133;52.862;6.602;2022-12-18T00:59:16;89.97;;;32.20;;
66327;SDS011;53133;52.862;6.602;2022-12-18T01:01:42;91.27;;;33.30;;
66327;SDS011;53133;52.862;6.602;2022-12-18T01:04:08;88.13;;;32.07;;
66327;SDS011;53133;52.862;6.602;2022-12-18T01:06:33;88.53;;;32.70;;
66327;SDS011;53133;52.862;6.602;2022-12-18T01:08:59;85.50;;;30.77;;
66327;SDS011;53133;52.862;6.602;2022-12-18T01:11:25;87.97;;;32.23;;
66327;SDS011;53133;52.862;6.602;2022-12-18T01:13:52;89.90;;;33.17;;
66327;SDS011;53133;52.862;6.602;2022-12-18T01:16:18;91.33;;;34.00;;
66327;SDS011;53133;52.862;6.602;2022-12-18T01:18:44;86.07;;;32.80;;
66327;SDS011;53133;52.862;6.602;2022-12-18T01:21:11;97.03;;;33.40;;
66327;SDS011;53133;52.862;6.602;2022-12-18T01:23:39;88.20;;;33.27;;
66327;SDS011;53133;52.862;6.602;2022-12-18T01:26:06;88.67;;;31.67;;
66327;SDS011;53133;52.862;6.602;2022-12-18T01:28:32;91.40;;;34.33;;
66327;SDS011;53133;52.862;6.602;2022-12-18T01:33:57;95.73;;;34.27;;
66327;SDS011;53133;52.862;6.602;2022-12-18T01:36:26;87.70;;;32.87;;
66327;SDS011;53133;52.862;6.602;2022-12-18T01:38:59;85.87;;;32.30;;
66327;SDS011;53133;52.862;6.602;2022-12-18T01:41:26;95.70;;;36.77;;
66327;SDS011;53133;52.862;6.602;2022-12-18T01:49:49;92.83;;;33.30;;
66327;SDS011;53133;52.862;6.602;2022-12-18T01:52:15;81.77;;;31.20;;
66327;SDS011;53133;52.862;6.602;2022-12-18T01:54:43;86.93;;;33.03;;
66327;SDS011;53133;52.862;6.602;2022-12-18T01:57:09;86.83;;;31.97;;
66327;SDS011;53133;52.862;6.602;2022-12-18T01:59:36;90.00;;;32.23;;
66327;SDS011;53133;52.862;6.602;2022-12-18T02:02:02;92.40;;;33.33;;
66327;SDS011;53133;52.862;6.602;2022-12-18T02:04:28;88.57;;;32.87;;
66327;SDS011;53133;52.862;6.602;2022-12-18T02:09:54;99.27;;;34.70;;
66327;SDS011;53133;52.862;6.602;2022-12-18T02:12:26;89.30;;;32.43;;
66327;SDS011;53133;52.862;6.602;2022-12-18T02:15:00;95.90;;;34.53;;
66327;SDS011;53133;52.862;6.602;2022-12-18T02:17:36;89.23;;;33.30;;
66327;SDS011;53133;52.862;6.602;2022-12-18T02:20:24;97.90;;;33.33;;
66327;SDS011;53133;52.862;6.602;2022-12-18T02:23:16;92.27;;;34.17;;
66327;SDS011;53133;52.862;6.602;2022-12-18T02:29:08;93.07;;;33.77;;
66327;SDS011;53133;52.862;6.602;2022-12-18T02:31:41;92.17;;;33.07;;
66327;SDS011;53133;52.862;6.602;2022-12-18T02:34:12;86.60;;;31.93;;
66327;SDS011;53133;52.862;6.602;2022-12-18T02:36:40;89.73;;;33.27;;
66327;SDS011;53133;52.862;6.602;2022-12-18T02:39:07;89.50;;;32.77;;
66327;SDS011;53133;52.862;6.602;2022-12-18T02:41:36;89.80;;;32.63;;
66327;SDS011;53133;52.862;6.602;2022-12-18T02:44:09;89.30;;;32.17;;
66327;SDS011;53133;52.862;6.602;2022-12-18T02:46:44;88.33;;;32.53;;
66327;SDS011;53133;52.862;6.602;2022-12-18T02:49:23;89.23;;;31.47;;
66327;SDS011;53133;52.862;6.602;2022-12-18T02:52:07;88.00;;;32.40;;
66327;SDS011;53133;52.862;6.602;2022-12-18T02:54:57;99.00;;;32.90;;
66327;SDS011;53133;52.862;6.602;2022-12-18T02:57:42;84.70;;;31.87;;
66327;SDS011;53133;52.862;6.602;2022-12-18T03:00:28;91.07;;;32.87;;
66327;SDS011;53133;52.862;6.602;2022-12-18T03:03:29;89.90;;;31.73;;
66327;SDS011;53133;52.862;6.602;2022-12-18T03:06:00;86.73;;;31.40;;
66327;SDS011;53133;52.862;6.602;2022-12-18T03:08:30;86.67;;;31.17;;
66327;SDS011;53133;52.862;6.602;2022-12-18T03:11:01;91.30;;;32.40;;
66327;SDS011;53133;52.862;6.602;2022-12-18T03:13:33;92.77;;;33.83;;
66327;SDS011;53133;52.862;6.602;2022-12-18T03:16:02;92.63;;;33.10;;
66327;SDS011;53133;52.862;6.602;2022-12-18T03:18:35;93.10;;;32.30;;
66327;SDS011;53133;52.862;6.602;2022-12-18T03:21:11;92.82;;;33.95;;
66327;SDS011;53133;52.862;6.602;2022-12-18T03:23:45;94.70;;;32.40;;
66327;SDS011;53133;52.862;6.602;2022-12-18T03:26:15;88.17;;;32.13;;
66327;SDS011;53133;52.862;6.602;2022-12-18T03:28:48;83.30;;;31.20;;
66327;SDS011;53133;52.862;6.602;2022-12-18T03:31:18;90.40;;;31.70;;
66327;SDS011;53133;52.862;6.602;2022-12-18T03:33:51;96.17;;;30.40;;
66327;SDS011;53133;52.862;6.602;2022-12-18T03:36:19;82.68;;;31.17;;
66327;SDS011;53133;52.862;6.602;2022-12-18T03:38:45;78.50;;;30.87;;
66327;SDS011;53133;52.862;6.602;2022-12-18T03:52:07;77.57;;;29.27;;
66327;SDS011;53133;52.862;6.602;2022-12-18T03:54:36;79.97;;;28.53;;
66327;SDS011;53133;52.862;6.602;2022-12-18T03:57:25;72.80;;;29.63;;
66327;SDS011;53133;52.862;6.602;2022-12-18T03:59:52;73.97;;;27.73;;
66327;SDS011;53133;52.862;6.602;2022-12-18T04:02:22;73.10;;;29.38;;
66327;SDS011;53133;52.862;6.602;2022-12-18T04:04:50;72.20;;;27.27;;
66327;SDS011;53133;52.862;6.602;2022-12-18T04:07:19;70.73;;;28.83;;
66327;SDS011;53133;52.862;6.602;2022-12-18T04:09:45;69.57;;;27.13;;
66327;SDS011;53133;52.862;6.602;2022-12-18T04:12:13;68.03;;;27.53;;
66327;SDS011;53133;52.862;6.602;2022-12-18T04:14:39;62.90;;;25.60;;
66327;SDS011;53133;52.862;6.602;2022-12-18T04:17:04;68.47;;;26.17;;
66327;SDS011;53133;52.862;6.602;2022-12-18T04:19:30;65.70;;;26.67;;
66327;SDS011;53133;52.862;6.602;2022-12-18T04:21:56;65.37;;;26.93;;
66327;SDS011;53133;52.862;6.602;2022-12-18T04:24:24;69.50;;;27.10;;
66327;SDS011;53133;52.862;6.602;2022-12-18T04:26:49;71.53;;;27.60;;
66327;SDS011;53133;52.862;6.602;2022-12-18T04:29:18;64.27;;;25.50;;
66327;SDS011;53133;52.862;6.602;2022-12-18T04:31:43;59.33;;;25.10;;
66327;SDS011;53133;52.862;6.602;2022-12-18T04:34:09;59.53;;;25.73;;
66327;SDS011;53133;52.862;6.602;2022-12-18T04:36:35;61.27;;;25.20;;
66327;SDS011;53133;52.862;6.602;2022-12-18T04:39:00;61.63;;;24.57;;
66327;SDS011;53133;52.862;6.602;2022-12-18T04:41:26;59.23;;;24.87;;
66327;SDS011;53133;52.862;6.602;2022-12-18T04:43:51;62.03;;;24.63;;
66327;SDS011;53133;52.862;6.602;2022-12-18T04:46:17;59.77;;;24.60;;
66327;SDS011;53133;52.862;6.602;2022-12-18T04:48:44;58.90;;;24.00;;
66327;SDS011;53133;52.862;6.602;2022-12-18T04:51:11;51.50;;;23.07;;
66327;SDS011;53133;52.862;6.602;2022-12-18T04:53:37;57.00;;;24.20;;
66327;SDS011;53133;52.862;6.602;2022-12-18T04:56:03;49.97;;;21.87;;
66327;SDS011;53133;52.862;6.602;2022-12-18T04:58:36;58.67;;;23.47;;
66327;SDS011;53133;52.862;6.602;2022-12-18T05:01:04;58.13;;;23.10;;
66327;SDS011;53133;52.862;6.602;2022-12-18T05:03:30;52.03;;;22.47;;
66327;SDS011;53133;52.862;6.602;2022-12-18T05:05:56;52.50;;;21.63;;
66327;SDS011;53133;52.862;6.602;2022-12-18T05:08:22;47.37;;;21.73;;
66327;SDS011;53133;52.862;6.602;2022-12-18T05:10:48;49.53;;;21.50;;
66327;SDS011;53133;52.862;6.602;2022-12-18T05:13:13;49.80;;;22.53;;
66327;SDS011;53133;52.862;6.602;2022-12-18T05:15:39;50.63;;;21.30;;
66327;SDS011;53133;52.862;6.602;2022-12-18T05:18:04;46.77;;;22.00;;
66327;SDS011;53133;52.862;6.602;2022-12-18T05:20:30;52.33;;;22.00;;
66327;SDS011;53133;52.862;6.602;2022-12-18T05:22:56;49.40;;;21.30;;
66327;SDS011;53133;52.862;6.602;2022-12-18T05:25:22;44.17;;;20.37;;
66327;SDS011;53133;52.862;6.602;2022-12-18T05:27:48;46.93;;;20.93;;
66327;SDS011;53133;52.862;6.602;2022-12-18T05:30:14;45.90;;;20.17;;
66327;SDS011;53133;52.862;6.602;2022-12-18T05:32:41;49.10;;;20.70;;
66327;SDS011;53133;52.862;6.602;2022-12-18T05:35:08;45.67;;;21.20;;
66327;SDS011;53133;52.862;6.602;2022-12-18T05:37:35;46.00;;;20.00;;
66327;SDS011;53133;52.862;6.602;2022-12-18T05:40:02;47.53;;;20.70;;
66327;SDS011;53133;52.862;6.602;2022-12-18T05:42:28;46.60;;;20.03;;
66327;SDS011;53133;52.862;6.602;2022-12-18T05:44:54;44.53;;;19.50;;
66327;SDS011;53133;52.862;6.602;2022-12-18T05:47:19;48.47;;;20.37;;
66327;SDS011;53133;52.862;6.602;2022-12-18T05:49:45;48.57;;;21.77;;
66327;SDS011;53133;52.862;6.602;2022-12-18T05:52:11;47.77;;;19.70;;
66327;SDS011;53133;52.862;6.602;2022-12-18T05:54:36;46.07;;;21.13;;
66327;SDS011;53133;52.862;6.602;2022-12-18T05:57:02;46.13;;;20.70;;
66327;SDS011;53133;52.862;6.602;2022-12-18T05:59:27;52.53;;;21.20;;
66327;SDS011;53133;52.862;6.602;2022-12-18T06:01:53;43.97;;;20.73;;
66327;SDS011;53133;52.862;6.602;2022-12-18T06:04:18;48.93;;;21.30;;
66327;SDS011;53133;52.862;6.602;2022-12-18T06:06:44;49.57;;;21.63;;
66327;SDS011;53133;52.862;6.602;2022-12-18T06:09:10;51.30;;;21.57;;
66327;SDS011;53133;52.862;6.602;2022-12-18T06:11:36;50.37;;;21.73;;
66327;SDS011;53133;52.862;6.602;2022-12-18T06:14:03;48.40;;;21.93;;
66327;SDS011;53133;52.862;6.602;2022-12-18T06:16:30;43.90;;;20.53;;
66327;SDS011;53133;52.862;6.602;2022-12-18T06:18:57;59.80;;;23.17;;
66327;SDS011;53133;52.862;6.602;2022-12-18T06:21:23;48.03;;;21.87;;
66327;SDS011;53133;52.862;6.602;2022-12-18T06:23:52;53.00;;;20.77;;
66327;SDS011;53133;52.862;6.602;2022-12-18T06:26:17;46.33;;;21.10;;
66327;SDS011;53133;52.862;6.602;2022-12-18T06:28:43;47.73;;;21.13;;
66327;SDS011;53133;52.862;6.602;2022-12-18T06:31:09;49.03;;;21.43;;
66327;SDS011;53133;52.862;6.602;2022-12-18T06:33:36;54.00;;;20.83;;
66327;SDS011;53133;52.862;6.602;2022-12-18T06:36:03;49.13;;;20.57;;
66327;SDS011;53133;52.862;6.602;2022-12-18T06:38:34;54.58;;;21.33;;
66327;SDS011;53133;52.862;6.602;2022-12-18T06:41:05;48.00;;;20.80;;
66327;SDS011;53133;52.862;6.602;2022-12-18T06:43:38;56.20;;;23.47;;
66327;SDS011;53133;52.862;6.602;2022-12-18T06:46:04;50.00;;;23.27;;
66327;SDS011;53133;52.862;6.602;2022-12-18T06:48:30;48.07;;;21.90;;
66327;SDS011;53133;52.862;6.602;2022-12-18T06:50:57;52.53;;;23.63;;
66327;SDS011;53133;52.862;6.602;2022-12-18T06:53:23;54.20;;;25.33;;
66327;SDS011;53133;52.862;6.602;2022-12-18T06:55:48;50.77;;;24.37;;
66327;SDS011;53133;52.862;6.602;2022-12-18T06:58:14;50.47;;;21.13;;
66327;SDS011;53133;52.862;6.602;2022-12-18T07:00:40;45.70;;;20.03;;
66327;SDS011;53133;52.862;6.602;2022-12-18T07:03:06;45.17;;;19.20;;
66327;SDS011;53133;52.862;6.602;2022-12-18T07:05:31;43.80;;;20.27;;
66327;SDS011;53133;52.862;6.602;2022-12-18T07:07:57;50.03;;;22.70;;
66327;SDS011;53133;52.862;6.602;2022-12-18T07:10:23;49.17;;;21.87;;
66327;SDS011;53133;52.862;6.602;2022-12-18T07:12:48;47.90;;;21.30;;
66327;SDS011;53133;52.862;6.602;2022-12-18T07:15:14;52.20;;;23.10;;
66327;SDS011;53133;52.862;6.602;2022-12-18T07:17:40;43.73;;;21.70;;
66327;SDS011;53133;52.862;6.602;2022-12-18T07:20:05;47.03;;;20.80;;
66327;SDS011;53133;52.862;6.602;2022-12-18T07:22:31;54.17;;;28.27;;
66327;SDS011;53133;52.862;6.602;2022-12-18T07:24:57;50.33;;;21.73;;
66327;SDS011;53133;52.862;6.602;2022-12-18T07:27:23;52.53;;;24.47;;
66327;SDS011;53133;52.862;6.602;2022-12-18T07:29:49;46.60;;;21.30;;
66327;SDS011;53133;52.862;6.602;2022-12-18T07:32:15;50.80;;;24.60;;
66327;SDS011;53133;52.862;6.602;2022-12-18T07:34:40;46.20;;;21.07;;
66327;SDS011;53133;52.862;6.602;2022-12-18T07:37:06;67.40;;;39.40;;
66327;SDS011;53133;52.862;6.602;2022-12-18T07:39:31;47.83;;;22.20;;
66327;SDS011;53133;52.862;6.602;2022-12-18T07:41:57;97.83;;;51.20;;
66327;SDS011;53133;52.862;6.602;2022-12-18T07:44:41;43.87;;;21.60;;
66327;SDS011;53133;52.862;6.602;2022-12-18T07:47:07;44.77;;;22.17;;
66327;SDS011;53133;52.862;6.602;2022-12-18T07:49:33;46.83;;;25.77;;
66327;SDS011;53133;52.862;6.602;2022-12-18T07:51:58;47.53;;;23.90;;
66327;SDS011;53133;52.862;6.602;2022-12-18T07:54:24;51.53;;;26.27;;
66327;SDS011;53133;52.862;6.602;2022-12-18T07:56:50;50.87;;;28.17;;
66327;SDS011;53133;52.862;6.602;2022-12-18T07:59:16;49.40;;;28.90;;
66327;SDS011;53133;52.862;6.602;2022-12-18T08:01:42;50.13;;;27.60;;
66327;SDS011;53133;52.862;6.602;2022-12-18T08:04:08;45.67;;;25.20;;
66327;SDS011;53133;52.862;6.602;2022-12-18T08:06:34;45.43;;;20.83;;
66327;SDS011;53133;52.862;6.602;2022-12-18T08:08:59;67.50;;;32.43;;
66327;SDS011;53133;52.862;6.602;2022-12-18T08:11:26;39.93;;;19.93;;
66327;SDS011;53133;52.862;6.602;2022-12-18T08:13:52;44.40;;;23.40;;
66327;SDS011;53133;52.862;6.602;2022-12-18T08:16:19;49.07;;;31.63;;
66327;SDS011;53133;52.862;6.602;2022-12-18T08:18:45;40.10;;;21.30;;
66327;SDS011;53133;52.862;6.602;2022-12-18T08:21:18;50.33;;;27.13;;
66327;SDS011;53133;52.862;6.602;2022-12-18T08:23:47;91.27;;;48.60;;
66327;SDS011;53133;52.862;6.602;2022-12-18T08:26:14;97.30;;;55.37;;
66327;SDS011;53133;52.862;6.602;2022-12-18T08:28:40;211.83;;;117.77;;
66327;SDS011;53133;52.862;6.602;2022-12-18T08:31:06;112.80;;;62.03;;
66327;SDS011;53133;52.862;6.602;2022-12-18T08:33:32;101.57;;;52.77;;
66327;SDS011;53133;52.862;6.602;2022-12-18T08:35:59;52.97;;;34.23;;
66327;SDS011;53133;52.862;6.602;2022-12-18T08:38:25;40.70;;;23.47;;
66327;SDS011;53133;52.862;6.602;2022-12-18T08:41:04;35.73;;;21.93;;
66327;SDS011;53133;52.862;6.602;2022-12-18T08:43:32;38.45;;;20.17;;
66327;SDS011;53133;52.862;6.602;2022-12-18T08:46:17;39.60;;;24.50;;
66327;SDS011;53133;52.862;6.602;2022-12-18T08:48:44;30.97;;;17.10;;
66327;SDS011;53133;52.862;6.602;2022-12-18T08:51:09;32.60;;;18.17;;
66327;SDS011;53133;52.862;6.602;2022-12-18T08:53:35;33.70;;;19.03;;
66327;SDS011;53133;52.862;6.602;2022-12-18T08:56:02;29.83;;;15.87;;
66327;SDS011;53133;52.862;6.602;2022-12-18T08:58:28;30.73;;;16.03;;
66327;SDS011;53133;52.862;6.602;2022-12-18T09:00:54;33.20;;;16.13;;
66327;SDS011;53133;52.862;6.602;2022-12-18T09:03:25;35.78;;;18.17;;
66327;SDS011;53133;52.862;6.602;2022-12-18T09:05:51;27.40;;;15.63;;
66327;SDS011;53133;52.862;6.602;2022-12-18T09:08:16;27.23;;;14.40;;
66327;SDS011;53133;52.862;6.602;2022-12-18T09:10:46;27.27;;;14.03;;
66327;SDS011;53133;52.862;6.602;2022-12-18T09:13:13;27.85;;;14.57;;
66327;SDS011;53133;52.862;6.602;2022-12-18T09:15:43;24.63;;;12.57;;
66327;SDS011;53133;52.862;6.602;2022-12-18T09:18:11;34.93;;;17.27;;
66327;SDS011;53133;52.862;6.602;2022-12-18T09:20:38;76.37;;;39.03;;
66327;SDS011;53133;52.862;6.602;2022-12-18T09:23:04;37.30;;;22.23;;
66327;SDS011;53133;52.862;6.602;2022-12-18T09:25:30;29.90;;;17.73;;
66327;SDS011;53133;52.862;6.602;2022-12-18T09:27:58;34.60;;;19.10;;
66327;SDS011;53133;52.862;6.602;2022-12-18T09:30:25;33.40;;;19.23;;
66327;SDS011;53133;52.862;6.602;2022-12-18T09:32:51;23.53;;;12.63;;
66327;SDS011;53133;52.862;6.602;2022-12-18T09:35:19;26.17;;;14.53;;
66327;SDS011;53133;52.862;6.602;2022-12-18T09:37:45;25.67;;;12.30;;
66327;SDS011;53133;52.862;6.602;2022-12-18T09:40:14;26.07;;;15.67;;
66327;SDS011;53133;52.862;6.602;2022-12-18T09:42:43;28.33;;;14.57;;
66327;SDS011;53133;52.862;6.602;2022-12-18T09:45:14;28.23;;;17.05;;
66327;SDS011;53133;52.862;6.602;2022-12-18T09:47:41;30.87;;;17.20;;
66327;SDS011;53133;52.862;6.602;2022-12-18T09:50:24;25.10;;;14.77;;
66327;SDS011;53133;52.862;6.602;2022-12-18T09:52:57;46.70;;;31.73;;
66327;SDS011;53133;52.862;6.602;2022-12-18T09:55:28;33.20;;;23.83;;
66327;SDS011;53133;52.862;6.602;2022-12-18T10:00:42;43.60;;;22.60;;
66327;SDS011;53133;52.862;6.602;2022-12-18T10:03:09;33.10;;;16.50;;
66327;SDS011;53133;52.862;6.602;2022-12-18T10:05:45;24.10;;;15.17;;
66327;SDS011;53133;52.862;6.602;2022-12-18T10:08:33;29.40;;;16.03;;
66327;SDS011;53133;52.862;6.602;2022-12-18T10:11:20;29.20;;;16.53;;
66327;SDS011;53133;52.862;6.602;2022-12-18T10:14:09;22.93;;;13.23;;
66327;SDS011;53133;52.862;6.602;2022-12-18T10:21:54;59.70;;;23.93;;
66327;SDS011;53133;52.862;6.602;2022-12-18T10:24:33;23.87;;;12.23;;
66327;SDS011;53133;52.862;6.602;2022-12-18T10:27:21;35.20;;;15.80;;
66327;SDS011;53133;52.862;6.602;2022-12-18T10:29:51;23.65;;;11.85;;
66327;SDS011;53133;52.862;6.602;2022-12-18T10:32:23;117.87;;;63.57;;
66327;SDS011;53133;52.862;6.602;2022-12-18T10:34:54;67.83;;;36.97;;
66327;SDS011;53133;52.862;6.602;2022-12-18T10:37:23;25.43;;;15.10;;
66327;SDS011;53133;52.862;6.602;2022-12-18T10:42:40;39.13;;;27.27;;
66327;SDS011;53133;52.862;6.602;2022-12-18T10:45:15;20.40;;;12.27;;
66327;SDS011;53133;52.862;6.602;2022-12-18T10:47:46;24.60;;;16.33;;
66327;SDS011;53133;52.862;6.602;2022-12-18T10:50:18;15.97;;;9.90;;
66327;SDS011;53133;52.862;6.602;2022-12-18T10:53:03;15.43;;;8.97;;
66327;SDS011;53133;52.862;6.602;2022-12-18T10:55:34;14.87;;;8.67;;
66327;SDS011;53133;52.862;6.602;2022-12-18T10:58:20;13.33;;;7.83;;
66327;SDS011;53133;52.862;6.602;2022-12-18T11:03:32;11.10;;;7.23;;
66327;SDS011;53133;52.862;6.602;2022-12-18T11:08:33;81.03;;;44.53;;
66327;SDS011;53133;52.862;6.602;2022-12-18T11:10:59;20.00;;;12.23;;
66327;SDS011;53133;52.862;6.602;2022-12-18T11:13:26;22.70;;;15.30;;
66327;SDS011;53133;52.862;6.602;2022-12-18T11:15:53;14.00;;;8.07;;
66327;SDS011;53133;52.862;6.602;2022-12-18T11:18:22;13.07;;;7.90;;
66327;SDS011;53133;52.862;6.602;2022-12-18T11:21:08;11.00;;;7.00;;
66327;SDS011;53133;52.862;6.602;2022-12-18T11:23:36;12.30;;;6.40;;
66327;SDS011;53133;52.862;6.602;2022-12-18T11:26:08;10.80;;;6.33;;
66327;SDS011;53133;52.862;6.602;2022-12-18T11:28:35;10.13;;;6.33;;
66327;SDS011;53133;52.862;6.602;2022-12-18T11:33:52;12.67;;;6.63;;
66327;SDS011;53133;52.862;6.602;2022-12-18T11:36:25;10.00;;;5.73;;
66327;SDS011;53133;52.862;6.602;2022-12-18T11:38:55;10.30;;;5.83;;
66327;SDS011;53133;52.862;6.602;2022-12-18T11:41:29;13.80;;;7.05;;
66327;SDS011;53133;52.862;6.602;2022-12-18T11:45:00;10.57;;;7.00;;
66327;SDS011;53133;52.862;6.602;2022-12-18T11:50:12;19.85;;;9.77;;
66327;SDS011;53133;52.862;6.602;2022-12-18T11:52:42;13.03;;;7.73;;
66327;SDS011;53133;52.862;6.602;2022-12-18T11:55:11;14.93;;;10.43;;
66327;SDS011;53133;52.862;6.602;2022-12-18T12:00:48;14.53;;;8.87;;
66327;SDS011;53133;52.862;6.602;2022-12-18T12:06:06;69.83;;;25.90;;
66327;SDS011;53133;52.862;6.602;2022-12-18T12:11:35;182.73;;;71.50;;
66327;SDS011;53133;52.862;6.602;2022-12-18T12:16:57;70.18;;;35.72;;
66327;SDS011;53133;52.862;6.602;2022-12-18T12:30:45;11.23;;;7.20;;
66327;SDS011;53133;52.862;6.602;2022-12-18T12:33:39;11.90;;;7.20;;
66327;SDS011;53133;52.862;6.602;2022-12-18T12:36:24;21.13;;;16.23;;
66327;SDS011;53133;52.862;6.602;2022-12-18T12:39:15;13.73;;;8.00;;
66327;SDS011;53133;52.862;6.602;2022-12-18T12:41:45;14.30;;;7.50;;
66327;SDS011;53133;52.862;6.602;2022-12-18T12:44:34;11.93;;;7.07;;
66327;SDS011;53133;52.862;6.602;2022-12-18T12:47:10;14.53;;;6.90;;
66327;SDS011;53133;52.862;6.602;2022-12-18T12:49:46;13.17;;;7.63;;
66327;SDS011;53133;52.862;6.602;2022-12-18T12:52:55;12.60;;;8.47;;
66327;SDS011;53133;52.862;6.602;2022-12-18T12:55:12;17.73;;;10.90;;
66327;SDS011;53133;52.862;6.602;2022-12-18T12:58:05;10.17;;;7.10;;
66327;SDS011;53133;52.862;6.602;2022-12-18T13:00:42;10.80;;;6.40;;
66327;SDS011;53133;52.862;6.602;2022-12-18T13:03:23;14.23;;;8.57;;
66327;SDS011;53133;52.862;6.602;2022-12-18T13:05:54;19.83;;;14.83;;
66327;SDS011;53133;52.862;6.602;2022-12-18T13:08:31;22.13;;;16.27;;
66327;SDS011;53133;52.862;6.602;2022-12-18T13:10:58;13.23;;;7.93;;
66327;SDS011;53133;52.862;6.602;2022-12-18T13:14:04;14.20;;;8.13;;
66327;SDS011;53133;52.862;6.602;2022-12-18T13:16:29;18.27;;;11.33;;
66327;SDS011;53133;52.862;6.602;2022-12-18T13:18:55;15.40;;;7.73;;
66327;SDS011;53133;52.862;6.602;2022-12-18T13:21:30;63.50;;;37.83;;
66327;SDS011;53133;52.862;6.602;2022-12-18T13:26:48;19.27;;;11.27;;
66327;SDS011;53133;52.862;6.602;2022-12-18T13:29:22;13.40;;;7.23;;
66327;SDS011;53133;52.862;6.602;2022-12-18T13:32:16;17.10;;;9.85;;
66327;SDS011;53133;52.862;6.602;2022-12-18T13:34:45;17.37;;;10.23;;
66327;SDS011;53133;52.862;6.602;2022-12-18T13:40:53;16.20;;;8.73;;
66327;SDS011;53133;52.862;6.602;2022-12-18T13:43:14;14.37;;;7.70;;
66327;SDS011;53133;52.862;6.602;2022-12-18T13:45:49;12.17;;;7.20;;
66327;SDS011;53133;52.862;6.602;2022-12-18T13:48:25;19.63;;;11.67;;
66327;SDS011;53133;52.862;6.602;2022-12-18T13:51:03;51.60;;;11.67;;
66327;SDS011;53133;52.862;6.602;2022-12-18T13:56:17;20.50;;;11.90;;
66327;SDS011;53133;52.862;6.602;2022-12-18T13:58:46;23.07;;;13.20;;
66327;SDS011;53133;52.862;6.602;2022-12-18T14:01:27;36.33;;;19.75;;
66327;SDS011;53133;52.862;6.602;2022-12-18T14:04:08;40.97;;;20.33;;
66327;SDS011;53133;52.862;6.602;2022-12-18T14:06:35;18.08;;;9.70;;
66327;SDS011;53133;52.862;6.602;2022-12-18T14:09:01;25.10;;;13.50;;
66327;SDS011;53133;52.862;6.602;2022-12-18T14:11:27;16.70;;;10.13;;
66327;SDS011;53133;52.862;6.602;2022-12-18T14:13:54;19.23;;;10.40;;
66327;SDS011;53133;52.862;6.602;2022-12-18T14:16:19;35.53;;;20.53;;
66327;SDS011;53133;52.862;6.602;2022-12-18T14:18:53;18.43;;;10.77;;
66327;SDS011;53133;52.862;6.602;2022-12-18T14:21:22;15.43;;;10.40;;
66327;SDS011;53133;52.862;6.602;2022-12-18T14:26:41;17.33;;;12.03;;
66327;SDS011;53133;52.862;6.602;2022-12-18T14:29:21;14.27;;;8.63;;
66327;SDS011;53133;52.862;6.602;2022-12-18T14:32:11;14.63;;;8.57;;
66327;SDS011;53133;52.862;6.602;2022-12-18T14:34:51;16.03;;;9.23;;
66327;SDS011;53133;52.862;6.602;2022-12-18T14:37:22;12.07;;;7.50;;
66327;SDS011;53133;52.862;6.602;2022-12-18T14:39:53;14.43;;;8.40;;
66327;SDS011;53133;52.862;6.602;2022-12-18T14:42:22;16.93;;;9.17;;
66327;SDS011;53133;52.862;6.602;2022-12-18T14:45:13;12.83;;;8.40;;
66327;SDS011;53133;52.862;6.602;2022-12-18T14:47:56;15.43;;;8.60;;
66327;SDS011;53133;52.862;6.602;2022-12-18T14:50:24;11.87;;;8.63;;
66327;SDS011;53133;52.862;6.602;2022-12-18T14:52:50;14.47;;;8.93;;
66327;SDS011;53133;52.862;6.602;2022-12-18T14:55:19;14.73;;;9.50;;
66327;SDS011;53133;52.862;6.602;2022-12-18T14:57:45;17.20;;;9.53;;
66327;SDS011;53133;52.862;6.602;2022-12-18T15:00:17;18.30;;;11.67;;
66327;SDS011;53133;52.862;6.602;2022-12-18T15:02:45;23.00;;;15.40;;
66327;SDS011;53133;52.862;6.602;2022-12-18T15:05:20;23.55;;;14.07;;
66327;SDS011;53133;52.862;6.602;2022-12-18T15:07:51;34.37;;;17.87;;
66327;SDS011;53133;52.862;6.602;2022-12-18T15:10:19;36.57;;;18.57;;
66327;SDS011;53133;52.862;6.602;2022-12-18T15:18:18;18.70;;;11.27;;
66327;SDS011;53133;52.862;6.602;2022-12-18T15:23:23;20.30;;;12.57;;
66327;SDS011;53133;52.862;6.602;2022-12-18T15:26:23;17.20;;;9.30;;
66327;SDS011;53133;52.862;6.602;2022-12-18T15:28:52;17.27;;;9.70;;
66327;SDS011;53133;52.862;6.602;2022-12-18T15:36:18;17.90;;;10.77;;
66327;SDS011;53133;52.862;6.602;2022-12-18T15:38:48;16.00;;;10.53;;
66327;SDS011;53133;52.862;6.602;2022-12-18T15:41:15;15.57;;;10.00;;
66327;SDS011;53133;52.862;6.602;2022-12-18T15:43:45;15.83;;;10.33;;
66327;SDS011;53133;52.862;6.602;2022-12-18T15:46:13;19.80;;;10.60;;
66327;SDS011;53133;52.862;6.602;2022-12-18T15:48:50;17.03;;;10.40;;
66327;SDS011;53133;52.862;6.602;2022-12-18T15:51:33;18.40;;;10.50;;
66327;SDS011;53133;52.862;6.602;2022-12-18T15:54:02;17.73;;;10.30;;
66327;SDS011;53133;52.862;6.602;2022-12-18T15:56:30;17.53;;;10.57;;
66327;SDS011;53133;52.862;6.602;2022-12-18T15:59:16;18.27;;;10.40;;
66327;SDS011;53133;52.862;6.602;2022-12-18T16:01:44;17.10;;;10.30;;
66327;SDS011;53133;52.862;6.602;2022-12-18T16:04:12;19.00;;;10.40;;
66327;SDS011;53133;52.862;6.602;2022-12-18T16:06:38;18.27;;;10.37;;
66327;SDS011;53133;52.862;6.602;2022-12-18T16:09:04;17.93;;;10.87;;
66327;SDS011;53133;52.862;6.602;2022-12-18T16:11:31;18.67;;;10.83;;
66327;SDS011;53133;52.862;6.602;2022-12-18T16:14:38;17.07;;;10.60;;
66327;SDS011;53133;52.862;6.602;2022-12-18T16:17:00;18.13;;;10.60;;